sensor_id;sensor_type;location;lat;lon;timestamp;P1;durP1;ratioP1;P2;durP2;ratioP2
83747;SDS011;73737;52.364;17.120;2023-12-04T00:00:41;21.70;;;12.10;;
83747;SDS011;73737;52.364;17.120;2023-12-04T00:03:43;21.80;;;11.60;;
83747;SDS011;73737;52.364;17.120;2023-12-04T00:06:11;21.70;;;11.90;;
83747;SDS011;73737;52.364;17.120;2023-12-04T00:08:40;24.60;;;12.50;;
83747;SDS011;73737;52.364;17.120;2023-12-04T00:11:08;20.90;;;11.60;;
83747;SDS011;73737;52.364;17.120;2023-12-04T00:13:36;21.80;;;13.30;;
83747;SDS011;73737;52.364;17.120;2023-12-04T00:16:05;22.00;;;12.20;;
83747;SDS011;73737;52.364;17.120;2023-12-04T00:18:34;28.20;;;13.60;;
83747;SDS011;73737;52.364;17.120;2023-12-04T00:21:02;27.40;;;14.00;;
83747;SDS011;73737;52.364;17.120;2023-12-04T00:23:30;25.00;;;13.10;;
83747;SDS011;73737;52.364;17.120;2023-12-04T00:25:58;29.40;;;14.30;;
83747;SDS011;73737;52.364;17.120;2023-12-04T00:28:27;28.80;;;13.60;;
83747;SDS011;73737;52.364;17.120;2023-12-04T00:30:56;27.30;;;14.60;;
83747;SDS011;73737;52.364;17.120;2023-12-04T00:33:25;27.80;;;14.00;;
83747;SDS011;73737;52.364;17.120;2023-12-04T00:35:53;29.00;;;14.50;;
83747;SDS011;73737;52.364;17.120;2023-12-04T00:38:21;32.40;;;16.80;;
83747;SDS011;73737;52.364;17.120;2023-12-04T00:40:50;31.80;;;15.00;;
83747;SDS011;73737;52.364;17.120;2023-12-04T00:43:18;25.40;;;13.50;;
83747;SDS011;73737;52.364;17.120;2023-12-04T00:45:47;29.90;;;13.70;;
83747;SDS011;73737;52.364;17.120;2023-12-04T00:48:15;27.20;;;14.00;;
83747;SDS011;73737;52.364;17.120;2023-12-04T00:50:43;25.50;;;12.90;;
83747;SDS011;73737;52.364;17.120;2023-12-04T00:53:11;29.90;;;14.70;;
83747;SDS011;73737;52.364;17.120;2023-12-04T00:55:40;28.80;;;13.40;;
83747;SDS011;73737;52.364;17.120;2023-12-04T00:58:08;29.60;;;13.70;;
83747;SDS011;73737;52.364;17.120;2023-12-04T01:00:36;26.70;;;13.90;;
83747;SDS011;73737;52.364;17.120;2023-12-04T01:03:04;30.30;;;14.40;;
83747;SDS011;73737;52.364;17.120;2023-12-04T01:05:33;34.90;;;16.30;;
83747;SDS011;73737;52.364;17.120;2023-12-04T01:08:01;31.40;;;15.20;;
83747;SDS011;73737;52.364;17.120;2023-12-04T01:10:29;34.90;;;16.10;;
83747;SDS011;73737;52.364;17.120;2023-12-04T01:12:58;32.60;;;15.40;;
83747;SDS011;73737;52.364;17.120;2023-12-04T01:15:26;32.20;;;15.20;;
83747;SDS011;73737;52.364;17.120;2023-12-04T01:17:54;33.70;;;15.60;;
83747;SDS011;73737;52.364;17.120;2023-12-04T01:20:23;32.90;;;14.40;;
83747;SDS011;73737;52.364;17.120;2023-12-04T01:22:51;28.40;;;15.60;;
83747;SDS011;73737;52.364;17.120;2023-12-04T01:25:19;37.60;;;16.20;;
83747;SDS011;73737;52.364;17.120;2023-12-04T01:27:47;32.00;;;16.10;;
83747;SDS011;73737;52.364;17.120;2023-12-04T01:30:16;28.50;;;14.20;;
83747;SDS011;73737;52.364;17.120;2023-12-04T01:32:44;31.70;;;15.20;;
83747;SDS011;73737;52.364;17.120;2023-12-04T01:35:12;32.90;;;15.70;;
83747;SDS011;73737;52.364;17.120;2023-12-04T01:37:41;32.90;;;15.00;;
83747;SDS011;73737;52.364;17.120;2023-12-04T01:40:09;32.90;;;16.10;;
83747;SDS011;73737;52.364;17.120;2023-12-04T01:42:37;31.00;;;13.70;;
83747;SDS011;73737;52.364;17.120;2023-12-04T01:45:06;32.60;;;15.70;;
83747;SDS011;73737;52.364;17.120;2023-12-04T01:47:35;28.20;;;14.50;;
83747;SDS011;73737;52.364;17.120;2023-12-04T01:50:03;29.20;;;13.80;;
83747;SDS011;73737;52.364;17.120;2023-12-04T01:52:33;28.70;;;13.20;;
83747;SDS011;73737;52.364;17.120;2023-12-04T01:55:01;29.30;;;13.60;;
83747;SDS011;73737;52.364;17.120;2023-12-04T01:57:30;25.90;;;12.60;;
83747;SDS011;73737;52.364;17.120;2023-12-04T01:59:59;24.90;;;13.10;;
83747;SDS011;73737;52.364;17.120;2023-12-04T02:02:28;26.20;;;13.00;;
83747;SDS011;73737;52.364;17.120;2023-12-04T02:04:57;30.50;;;14.00;;
83747;SDS011;73737;52.364;17.120;2023-12-04T02:07:25;26.10;;;11.80;;
83747;SDS011;73737;52.364;17.120;2023-12-04T02:09:54;24.80;;;12.80;;
83747;SDS011;73737;52.364;17.120;2023-12-04T02:12:23;27.70;;;13.60;;
83747;SDS011;73737;52.364;17.120;2023-12-04T02:14:52;26.20;;;13.10;;
83747;SDS011;73737;52.364;17.120;2023-12-04T02:17:21;26.00;;;13.20;;
83747;SDS011;73737;52.364;17.120;2023-12-04T02:19:50;24.30;;;12.40;;
83747;SDS011;73737;52.364;17.120;2023-12-04T02:22:18;26.20;;;13.00;;
83747;SDS011;73737;52.364;17.120;2023-12-04T02:24:46;28.00;;;12.80;;
83747;SDS011;73737;52.364;17.120;2023-12-04T02:27:16;30.40;;;13.70;;
83747;SDS011;73737;52.364;17.120;2023-12-04T02:30:08;28.50;;;12.80;;
83747;SDS011;73737;52.364;17.120;2023-12-04T02:32:36;25.70;;;12.60;;
83747;SDS011;73737;52.364;17.120;2023-12-04T02:35:08;23.80;;;11.70;;
83747;SDS011;73737;52.364;17.120;2023-12-04T02:37:37;27.10;;;14.10;;
83747;SDS011;73737;52.364;17.120;2023-12-04T02:40:07;25.10;;;11.80;;
83747;SDS011;73737;52.364;17.120;2023-12-04T02:42:36;25.20;;;12.00;;
83747;SDS011;73737;52.364;17.120;2023-12-04T02:45:04;24.90;;;12.90;;
83747;SDS011;73737;52.364;17.120;2023-12-04T02:47:33;28.80;;;13.40;;
83747;SDS011;73737;52.364;17.120;2023-12-04T02:50:01;27.10;;;13.80;;
83747;SDS011;73737;52.364;17.120;2023-12-04T02:52:29;26.70;;;12.80;;
83747;SDS011;73737;52.364;17.120;2023-12-04T02:54:58;28.80;;;15.20;;
83747;SDS011;73737;52.364;17.120;2023-12-04T02:57:26;29.40;;;14.10;;
83747;SDS011;73737;52.364;17.120;2023-12-04T02:59:54;27.10;;;13.50;;
83747;SDS011;73737;52.364;17.120;2023-12-04T03:02:23;27.30;;;12.40;;
83747;SDS011;73737;52.364;17.120;2023-12-04T03:04:51;26.80;;;13.30;;
83747;SDS011;73737;52.364;17.120;2023-12-04T03:07:20;27.30;;;12.90;;
83747;SDS011;73737;52.364;17.120;2023-12-04T03:09:50;28.90;;;13.50;;
83747;SDS011;73737;52.364;17.120;2023-12-04T03:12:18;31.00;;;14.90;;
83747;SDS011;73737;52.364;17.120;2023-12-04T03:14:47;33.30;;;15.20;;
83747;SDS011;73737;52.364;17.120;2023-12-04T03:17:15;33.90;;;14.90;;
83747;SDS011;73737;52.364;17.120;2023-12-04T03:19:43;34.40;;;15.50;;
83747;SDS011;73737;52.364;17.120;2023-12-04T03:22:12;34.80;;;15.00;;
83747;SDS011;73737;52.364;17.120;2023-12-04T03:24:40;32.50;;;14.90;;
83747;SDS011;73737;52.364;17.120;2023-12-04T03:27:08;40.40;;;17.20;;
83747;SDS011;73737;52.364;17.120;2023-12-04T03:29:37;42.20;;;17.50;;
83747;SDS011;73737;52.364;17.120;2023-12-04T03:32:05;40.80;;;16.30;;
83747;SDS011;73737;52.364;17.120;2023-12-04T03:34:33;38.40;;;16.30;;
83747;SDS011;73737;52.364;17.120;2023-12-04T03:37:02;36.40;;;16.00;;
83747;SDS011;73737;52.364;17.120;2023-12-04T03:39:30;39.10;;;18.00;;
83747;SDS011;73737;52.364;17.120;2023-12-04T03:41:58;41.90;;;17.60;;
83747;SDS011;73737;52.364;17.120;2023-12-04T03:44:27;38.50;;;16.00;;
83747;SDS011;73737;52.364;17.120;2023-12-04T03:46:55;47.10;;;18.50;;
83747;SDS011;73737;52.364;17.120;2023-12-04T03:49:24;39.60;;;15.60;;
83747;SDS011;73737;52.364;17.120;2023-12-04T03:51:52;30.60;;;14.20;;
83747;SDS011;73737;52.364;17.120;2023-12-04T03:54:20;36.80;;;17.50;;
83747;SDS011;73737;52.364;17.120;2023-12-04T03:56:48;36.50;;;16.40;;
83747;SDS011;73737;52.364;17.120;2023-12-04T03:59:17;36.90;;;15.30;;
83747;SDS011;73737;52.364;17.120;2023-12-04T04:01:45;32.70;;;16.00;;
83747;SDS011;73737;52.364;17.120;2023-12-04T04:04:13;40.80;;;15.60;;
83747;SDS011;73737;52.364;17.120;2023-12-04T04:06:41;38.70;;;15.90;;
83747;SDS011;73737;52.364;17.120;2023-12-04T04:09:10;34.20;;;16.30;;
83747;SDS011;73737;52.364;17.120;2023-12-04T04:11:38;44.80;;;20.70;;
83747;SDS011;73737;52.364;17.120;2023-12-04T04:14:06;47.00;;;21.70;;
83747;SDS011;73737;52.364;17.120;2023-12-04T04:16:34;47.40;;;18.60;;
83747;SDS011;73737;52.364;17.120;2023-12-04T04:19:03;42.30;;;18.70;;
83747;SDS011;73737;52.364;17.120;2023-12-04T04:21:31;40.00;;;18.20;;
83747;SDS011;73737;52.364;17.120;2023-12-04T04:23:59;41.70;;;17.30;;
83747;SDS011;73737;52.364;17.120;2023-12-04T04:26:28;40.90;;;17.70;;
83747;SDS011;73737;52.364;17.120;2023-12-04T04:28:56;35.60;;;15.90;;
83747;SDS011;73737;52.364;17.120;2023-12-04T04:31:26;41.40;;;17.20;;
83747;SDS011;73737;52.364;17.120;2023-12-04T04:33:54;36.50;;;14.70;;
83747;SDS011;73737;52.364;17.120;2023-12-04T04:36:22;36.00;;;14.80;;
83747;SDS011;73737;52.364;17.120;2023-12-04T04:38:50;36.80;;;16.70;;
83747;SDS011;73737;52.364;17.120;2023-12-04T04:41:19;36.60;;;15.40;;
83747;SDS011;73737;52.364;17.120;2023-12-04T04:43:47;34.70;;;14.90;;
83747;SDS011;73737;52.364;17.120;2023-12-04T04:46:15;34.00;;;15.50;;
83747;SDS011;73737;52.364;17.120;2023-12-04T04:48:43;37.40;;;16.30;;
83747;SDS011;73737;52.364;17.120;2023-12-04T04:51:12;35.30;;;15.10;;
83747;SDS011;73737;52.364;17.120;2023-12-04T04:53:40;34.70;;;16.00;;
83747;SDS011;73737;52.364;17.120;2023-12-04T04:56:08;46.30;;;20.30;;
83747;SDS011;73737;52.364;17.120;2023-12-04T04:58:37;77.30;;;31.60;;
83747;SDS011;73737;52.364;17.120;2023-12-04T05:01:05;57.90;;;25.60;;
83747;SDS011;73737;52.364;17.120;2023-12-04T05:03:34;40.50;;;17.30;;
83747;SDS011;73737;52.364;17.120;2023-12-04T05:06:03;38.20;;;14.70;;
83747;SDS011;73737;52.364;17.120;2023-12-04T05:08:31;35.90;;;14.80;;
83747;SDS011;73737;52.364;17.120;2023-12-04T05:11:00;38.60;;;15.40;;
83747;SDS011;73737;52.364;17.120;2023-12-04T05:13:28;38.30;;;17.40;;
83747;SDS011;73737;52.364;17.120;2023-12-04T05:15:56;37.30;;;15.40;;
83747;SDS011;73737;52.364;17.120;2023-12-04T05:18:25;34.40;;;15.00;;
83747;SDS011;73737;52.364;17.120;2023-12-04T05:20:53;33.60;;;15.20;;
83747;SDS011;73737;52.364;17.120;2023-12-04T05:23:22;39.10;;;14.40;;
83747;SDS011;73737;52.364;17.120;2023-12-04T05:25:50;31.30;;;13.50;;
83747;SDS011;73737;52.364;17.120;2023-12-04T05:28:18;33.60;;;16.10;;
83747;SDS011;73737;52.364;17.120;2023-12-04T05:30:46;30.80;;;13.80;;
83747;SDS011;73737;52.364;17.120;2023-12-04T05:33:15;37.00;;;15.30;;
83747;SDS011;73737;52.364;17.120;2023-12-04T05:35:43;33.70;;;15.50;;
83747;SDS011;73737;52.364;17.120;2023-12-04T05:38:11;32.30;;;14.90;;
83747;SDS011;73737;52.364;17.120;2023-12-04T05:40:40;38.50;;;15.40;;
83747;SDS011;73737;52.364;17.120;2023-12-04T05:43:08;35.90;;;14.70;;
83747;SDS011;73737;52.364;17.120;2023-12-04T05:45:38;33.20;;;15.30;;
83747;SDS011;73737;52.364;17.120;2023-12-04T05:48:07;36.00;;;15.80;;
83747;SDS011;73737;52.364;17.120;2023-12-04T05:50:35;36.40;;;16.10;;
83747;SDS011;73737;52.364;17.120;2023-12-04T05:53:03;30.70;;;14.20;;
83747;SDS011;73737;52.364;17.120;2023-12-04T05:55:34;37.00;;;15.60;;
83747;SDS011;73737;52.364;17.120;2023-12-04T05:58:02;31.90;;;14.50;;
83747;SDS011;73737;52.364;17.120;2023-12-04T06:00:31;39.90;;;16.70;;
83747;SDS011;73737;52.364;17.120;2023-12-04T06:02:59;36.30;;;15.20;;
83747;SDS011;73737;52.364;17.120;2023-12-04T06:05:28;38.90;;;14.10;;
83747;SDS011;73737;52.364;17.120;2023-12-04T06:07:56;36.60;;;15.40;;
83747;SDS011;73737;52.364;17.120;2023-12-04T06:10:25;33.50;;;15.60;;
83747;SDS011;73737;52.364;17.120;2023-12-04T06:12:54;39.60;;;16.40;;
83747;SDS011;73737;52.364;17.120;2023-12-04T06:15:22;37.80;;;16.00;;
83747;SDS011;73737;52.364;17.120;2023-12-04T06:17:50;40.20;;;15.80;;
83747;SDS011;73737;52.364;17.120;2023-12-04T06:20:19;30.60;;;14.10;;
83747;SDS011;73737;52.364;17.120;2023-12-04T06:22:47;32.30;;;15.40;;
83747;SDS011;73737;52.364;17.120;2023-12-04T06:25:16;31.90;;;14.40;;
83747;SDS011;73737;52.364;17.120;2023-12-04T06:27:45;33.20;;;14.60;;
83747;SDS011;73737;52.364;17.120;2023-12-04T06:30:14;37.40;;;16.50;;
83747;SDS011;73737;52.364;17.120;2023-12-04T06:32:43;34.50;;;14.20;;
83747;SDS011;73737;52.364;17.120;2023-12-04T06:35:11;37.50;;;16.90;;
83747;SDS011;73737;52.364;17.120;2023-12-04T06:37:40;39.40;;;16.60;;
83747;SDS011;73737;52.364;17.120;2023-12-04T06:40:09;35.00;;;16.30;;
83747;SDS011;73737;52.364;17.120;2023-12-04T06:42:39;34.80;;;17.10;;
83747;SDS011;73737;52.364;17.120;2023-12-04T06:45:08;35.00;;;15.50;;
83747;SDS011;73737;52.364;17.120;2023-12-04T06:47:37;40.00;;;18.50;;
83747;SDS011;73737;52.364;17.120;2023-12-04T06:50:08;34.70;;;17.70;;
83747;SDS011;73737;52.364;17.120;2023-12-04T06:52:37;36.50;;;16.50;;
83747;SDS011;73737;52.364;17.120;2023-12-04T06:55:05;33.40;;;15.90;;
83747;SDS011;73737;52.364;17.120;2023-12-04T06:57:34;32.50;;;15.20;;
83747;SDS011;73737;52.364;17.120;2023-12-04T07:00:03;34.20;;;15.80;;
83747;SDS011;73737;52.364;17.120;2023-12-04T07:02:32;32.20;;;14.90;;
83747;SDS011;73737;52.364;17.120;2023-12-04T07:05:00;41.80;;;17.50;;
83747;SDS011;73737;52.364;17.120;2023-12-04T07:07:31;35.30;;;17.20;;
83747;SDS011;73737;52.364;17.120;2023-12-04T07:09:59;38.10;;;16.20;;
83747;SDS011;73737;52.364;17.120;2023-12-04T07:12:28;41.60;;;17.40;;
83747;SDS011;73737;52.364;17.120;2023-12-04T07:14:56;40.70;;;18.30;;
83747;SDS011;73737;52.364;17.120;2023-12-04T07:17:24;39.00;;;18.50;;
83747;SDS011;73737;52.364;17.120;2023-12-04T07:19:52;31.90;;;14.90;;
83747;SDS011;73737;52.364;17.120;2023-12-04T07:22:21;33.50;;;12.90;;
83747;SDS011;73737;52.364;17.120;2023-12-04T07:24:49;31.10;;;12.70;;
83747;SDS011;73737;52.364;17.120;2023-12-04T07:27:17;28.80;;;13.20;;
83747;SDS011;73737;52.364;17.120;2023-12-04T07:29:45;28.60;;;14.00;;
83747;SDS011;73737;52.364;17.120;2023-12-04T07:32:14;29.40;;;13.40;;
83747;SDS011;73737;52.364;17.120;2023-12-04T07:34:42;30.80;;;13.10;;
83747;SDS011;73737;52.364;17.120;2023-12-04T07:37:10;34.90;;;14.60;;
83747;SDS011;73737;52.364;17.120;2023-12-04T07:39:39;34.30;;;14.60;;
83747;SDS011;73737;52.364;17.120;2023-12-04T07:42:08;31.80;;;14.60;;
83747;SDS011;73737;52.364;17.120;2023-12-04T07:44:37;32.30;;;14.40;;
83747;SDS011;73737;52.364;17.120;2023-12-04T07:47:06;35.90;;;15.40;;
83747;SDS011;73737;52.364;17.120;2023-12-04T07:49:34;38.10;;;17.30;;
83747;SDS011;73737;52.364;17.120;2023-12-04T07:52:03;31.90;;;14.40;;
83747;SDS011;73737;52.364;17.120;2023-12-04T07:54:31;35.90;;;16.00;;
83747;SDS011;73737;52.364;17.120;2023-12-04T07:57:00;38.10;;;18.40;;
83747;SDS011;73737;52.364;17.120;2023-12-04T07:59:28;36.20;;;18.10;;
83747;SDS011;73737;52.364;17.120;2023-12-04T08:01:57;41.20;;;18.80;;
83747;SDS011;73737;52.364;17.120;2023-12-04T08:04:25;36.60;;;16.60;;
83747;SDS011;73737;52.364;17.120;2023-12-04T08:06:53;36.20;;;17.20;;
83747;SDS011;73737;52.364;17.120;2023-12-04T08:09:22;44.10;;;18.60;;
83747;SDS011;73737;52.364;17.120;2023-12-04T08:11:50;41.90;;;17.90;;
83747;SDS011;73737;52.364;17.120;2023-12-04T08:14:18;39.00;;;19.40;;
83747;SDS011;73737;52.364;17.120;2023-12-04T08:16:47;42.50;;;19.40;;
83747;SDS011;73737;52.364;17.120;2023-12-04T08:19:16;43.20;;;19.30;;
83747;SDS011;73737;52.364;17.120;2023-12-04T08:21:45;35.20;;;17.30;;
83747;SDS011;73737;52.364;17.120;2023-12-04T08:24:14;35.50;;;17.40;;
83747;SDS011;73737;52.364;17.120;2023-12-04T08:26:45;30.40;;;15.20;;
83747;SDS011;73737;52.364;17.120;2023-12-04T08:29:14;38.80;;;18.40;;
83747;SDS011;73737;52.364;17.120;2023-12-04T08:31:42;32.50;;;16.20;;
83747;SDS011;73737;52.364;17.120;2023-12-04T08:34:10;43.10;;;19.10;;
83747;SDS011;73737;52.364;17.120;2023-12-04T08:36:39;40.50;;;18.70;;
83747;SDS011;73737;52.364;17.120;2023-12-04T08:39:07;39.30;;;19.20;;
83747;SDS011;73737;52.364;17.120;2023-12-04T08:41:35;38.30;;;19.90;;
83747;SDS011;73737;52.364;17.120;2023-12-04T08:44:04;40.30;;;18.80;;
83747;SDS011;73737;52.364;17.120;2023-12-04T08:46:32;35.80;;;17.60;;
83747;SDS011;73737;52.364;17.120;2023-12-04T08:49:00;41.70;;;19.50;;
83747;SDS011;73737;52.364;17.120;2023-12-04T08:51:29;42.40;;;19.50;;
83747;SDS011;73737;52.364;17.120;2023-12-04T08:53:57;39.90;;;19.20;;
83747;SDS011;73737;52.364;17.120;2023-12-04T08:56:25;44.90;;;20.90;;
83747;SDS011;73737;52.364;17.120;2023-12-04T08:58:53;38.80;;;20.20;;
83747;SDS011;73737;52.364;17.120;2023-12-04T09:01:22;37.50;;;18.70;;
83747;SDS011;73737;52.364;17.120;2023-12-04T09:03:51;39.70;;;17.60;;
83747;SDS011;73737;52.364;17.120;2023-12-04T09:06:20;37.50;;;17.60;;
83747;SDS011;73737;52.364;17.120;2023-12-04T09:08:48;35.30;;;17.70;;
83747;SDS011;73737;52.364;17.120;2023-12-04T09:11:16;40.30;;;20.40;;
83747;SDS011;73737;52.364;17.120;2023-12-04T09:13:45;33.50;;;16.20;;
83747;SDS011;73737;52.364;17.120;2023-12-04T09:16:13;38.60;;;20.10;;
83747;SDS011;73737;52.364;17.120;2023-12-04T09:18:41;35.00;;;17.50;;
83747;SDS011;73737;52.364;17.120;2023-12-04T09:21:10;35.30;;;16.90;;
83747;SDS011;73737;52.364;17.120;2023-12-04T09:23:38;36.20;;;17.10;;
83747;SDS011;73737;52.364;17.120;2023-12-04T09:26:06;34.60;;;16.00;;
83747;SDS011;73737;52.364;17.120;2023-12-04T09:28:35;38.20;;;20.20;;
83747;SDS011;73737;52.364;17.120;2023-12-04T09:31:05;35.80;;;17.80;;
83747;SDS011;73737;52.364;17.120;2023-12-04T09:33:35;28.10;;;14.90;;
83747;SDS011;73737;52.364;17.120;2023-12-04T09:36:04;32.80;;;17.40;;
83747;SDS011;73737;52.364;17.120;2023-12-04T09:38:33;37.60;;;16.90;;
83747;SDS011;73737;52.364;17.120;2023-12-04T09:41:02;36.10;;;18.20;;
83747;SDS011;73737;52.364;17.120;2023-12-04T09:43:32;30.90;;;16.50;;
83747;SDS011;73737;52.364;17.120;2023-12-04T09:46:00;31.00;;;14.50;;
83747;SDS011;73737;52.364;17.120;2023-12-04T09:48:29;33.80;;;16.60;;
83747;SDS011;73737;52.364;17.120;2023-12-04T09:50:58;36.60;;;18.40;;
83747;SDS011;73737;52.364;17.120;2023-12-04T09:53:27;32.20;;;17.10;;
83747;SDS011;73737;52.364;17.120;2023-12-04T09:55:56;32.40;;;17.50;;
83747;SDS011;73737;52.364;17.120;2023-12-04T09:58:26;34.50;;;16.90;;
83747;SDS011;73737;52.364;17.120;2023-12-04T10:00:57;40.40;;;18.50;;
83747;SDS011;73737;52.364;17.120;2023-12-04T10:03:27;33.30;;;18.80;;
83747;SDS011;73737;52.364;17.120;2023-12-04T10:05:57;42.80;;;19.20;;
83747;SDS011;73737;52.364;17.120;2023-12-04T10:08:26;36.40;;;17.80;;
83747;SDS011;73737;52.364;17.120;2023-12-04T10:10:54;36.90;;;20.00;;
83747;SDS011;73737;52.364;17.120;2023-12-04T10:13:23;31.50;;;17.20;;
83747;SDS011;73737;52.364;17.120;2023-12-04T10:15:51;48.80;;;19.80;;
83747;SDS011;73737;52.364;17.120;2023-12-04T10:18:26;36.40;;;18.80;;
83747;SDS011;73737;52.364;17.120;2023-12-04T10:20:57;36.00;;;21.10;;
83747;SDS011;73737;52.364;17.120;2023-12-04T10:23:42;36.30;;;19.50;;
83747;SDS011;73737;52.364;17.120;2023-12-04T10:26:14;40.50;;;21.70;;
83747;SDS011;73737;52.364;17.120;2023-12-04T10:28:58;37.60;;;19.90;;
83747;SDS011;73737;52.364;17.120;2023-12-04T10:31:33;36.90;;;19.60;;
83747;SDS011;73737;52.364;17.120;2023-12-04T10:34:02;34.60;;;19.50;;
83747;SDS011;73737;52.364;17.120;2023-12-04T10:36:32;33.70;;;18.70;;
83747;SDS011;73737;52.364;17.120;2023-12-04T10:39:01;32.30;;;19.40;;
83747;SDS011;73737;52.364;17.120;2023-12-04T10:41:33;31.90;;;18.30;;
83747;SDS011;73737;52.364;17.120;2023-12-04T10:44:01;33.30;;;18.30;;
83747;SDS011;73737;52.364;17.120;2023-12-04T10:46:30;30.40;;;16.70;;
83747;SDS011;73737;52.364;17.120;2023-12-04T10:48:59;31.80;;;18.30;;
83747;SDS011;73737;52.364;17.120;2023-12-04T10:51:28;29.70;;;18.70;;
83747;SDS011;73737;52.364;17.120;2023-12-04T10:53:58;35.10;;;20.50;;
83747;SDS011;73737;52.364;17.120;2023-12-04T10:56:31;42.30;;;23.50;;
83747;SDS011;73737;52.364;17.120;2023-12-04T10:59:10;42.10;;;22.70;;
83747;SDS011;73737;52.364;17.120;2023-12-04T11:01:40;40.40;;;22.50;;
83747;SDS011;73737;52.364;17.120;2023-12-04T11:04:11;40.90;;;21.80;;
83747;SDS011;73737;52.364;17.120;2023-12-04T11:06:45;46.10;;;26.30;;
83747;SDS011;73737;52.364;17.120;2023-12-04T11:09:16;43.40;;;24.70;;
83747;SDS011;73737;52.364;17.120;2023-12-04T11:11:48;34.90;;;20.00;;
83747;SDS011;73737;52.364;17.120;2023-12-04T11:14:20;37.00;;;22.00;;
83747;SDS011;73737;52.364;17.120;2023-12-04T11:16:54;35.90;;;20.60;;
83747;SDS011;73737;52.364;17.120;2023-12-04T11:19:35;30.10;;;16.90;;
83747;SDS011;73737;52.364;17.120;2023-12-04T11:22:08;33.00;;;20.40;;
83747;SDS011;73737;52.364;17.120;2023-12-04T11:24:38;34.50;;;20.30;;
83747;SDS011;73737;52.364;17.120;2023-12-04T11:27:07;40.80;;;20.50;;
83747;SDS011;73737;52.364;17.120;2023-12-04T11:29:36;46.30;;;22.70;;
83747;SDS011;73737;52.364;17.120;2023-12-04T11:32:06;35.60;;;19.90;;
83747;SDS011;73737;52.364;17.120;2023-12-04T11:34:42;35.70;;;19.90;;
83747;SDS011;73737;52.364;17.120;2023-12-04T11:37:20;37.90;;;20.60;;
83747;SDS011;73737;52.364;17.120;2023-12-04T11:39:50;36.20;;;21.90;;
83747;SDS011;73737;52.364;17.120;2023-12-04T11:42:23;42.00;;;23.60;;
83747;SDS011;73737;52.364;17.120;2023-12-04T11:47:29;45.50;;;25.20;;
83747;SDS011;73737;52.364;17.120;2023-12-04T11:49:58;37.40;;;22.80;;
83747;SDS011;73737;52.364;17.120;2023-12-04T11:52:34;33.70;;;20.40;;
83747;SDS011;73737;52.364;17.120;2023-12-04T11:55:03;36.00;;;21.50;;
83747;SDS011;73737;52.364;17.120;2023-12-04T11:57:34;39.00;;;20.40;;
83747;SDS011;73737;52.364;17.120;2023-12-04T12:05:30;30.50;;;16.70;;
83747;SDS011;73737;52.364;17.120;2023-12-04T12:08:01;35.80;;;19.70;;
83747;SDS011;73737;52.364;17.120;2023-12-04T12:10:30;28.50;;;16.30;;
83747;SDS011;73737;52.364;17.120;2023-12-04T12:12:59;33.40;;;18.00;;
83747;SDS011;73737;52.364;17.120;2023-12-04T12:15:30;32.00;;;16.70;;
83747;SDS011;73737;52.364;17.120;2023-12-04T12:18:00;30.00;;;16.50;;
83747;SDS011;73737;52.364;17.120;2023-12-04T12:20:28;28.70;;;16.10;;
83747;SDS011;73737;52.364;17.120;2023-12-04T12:22:57;31.30;;;18.50;;
83747;SDS011;73737;52.364;17.120;2023-12-04T12:25:25;33.50;;;19.40;;
83747;SDS011;73737;52.364;17.120;2023-12-04T12:27:54;30.90;;;17.20;;
83747;SDS011;73737;52.364;17.120;2023-12-04T12:30:22;35.90;;;20.70;;
83747;SDS011;73737;52.364;17.120;2023-12-04T12:32:51;33.90;;;18.60;;
83747;SDS011;73737;52.364;17.120;2023-12-04T12:35:19;39.10;;;23.60;;
83747;SDS011;73737;52.364;17.120;2023-12-04T12:37:48;38.10;;;21.70;;
83747;SDS011;73737;52.364;17.120;2023-12-04T12:40:16;36.70;;;21.00;;
83747;SDS011;73737;52.364;17.120;2023-12-04T12:42:45;35.90;;;20.40;;
83747;SDS011;73737;52.364;17.120;2023-12-04T12:45:13;47.00;;;23.60;;
83747;SDS011;73737;52.364;17.120;2023-12-04T12:47:42;41.70;;;20.50;;
83747;SDS011;73737;52.364;17.120;2023-12-04T12:50:11;28.20;;;15.80;;
83747;SDS011;73737;52.364;17.120;2023-12-04T12:52:42;56.80;;;27.40;;
83747;SDS011;73737;52.364;17.120;2023-12-04T12:55:11;55.20;;;23.80;;
83747;SDS011;73737;52.364;17.120;2023-12-04T12:57:52;46.50;;;20.00;;
83747;SDS011;73737;52.364;17.120;2023-12-04T13:00:20;47.70;;;19.40;;
83747;SDS011;73737;52.364;17.120;2023-12-04T13:02:53;41.30;;;20.20;;
83747;SDS011;73737;52.364;17.120;2023-12-04T13:05:22;31.40;;;14.50;;
83747;SDS011;73737;52.364;17.120;2023-12-04T13:07:51;33.80;;;16.70;;
83747;SDS011;73737;52.364;17.120;2023-12-04T13:10:20;31.90;;;15.70;;
83747;SDS011;73737;52.364;17.120;2023-12-04T13:12:49;31.30;;;16.40;;
83747;SDS011;73737;52.364;17.120;2023-12-04T13:15:20;29.30;;;13.50;;
83747;SDS011;73737;52.364;17.120;2023-12-04T13:17:49;35.60;;;17.20;;
83747;SDS011;73737;52.364;17.120;2023-12-04T13:20:17;29.80;;;14.60;;
83747;SDS011;73737;52.364;17.120;2023-12-04T13:22:46;30.20;;;14.20;;
83747;SDS011;73737;52.364;17.120;2023-12-04T13:25:14;34.70;;;17.50;;
83747;SDS011;73737;52.364;17.120;2023-12-04T13:27:43;35.00;;;16.60;;
83747;SDS011;73737;52.364;17.120;2023-12-04T13:30:12;39.90;;;20.50;;
83747;SDS011;73737;52.364;17.120;2023-12-04T13:32:41;31.70;;;15.50;;
83747;SDS011;73737;52.364;17.120;2023-12-04T13:35:11;37.80;;;19.40;;
83747;SDS011;73737;52.364;17.120;2023-12-04T13:37:40;32.90;;;17.30;;
83747;SDS011;73737;52.364;17.120;2023-12-04T13:40:08;35.20;;;17.10;;
83747;SDS011;73737;52.364;17.120;2023-12-04T13:42:40;32.70;;;14.70;;
83747;SDS011;73737;52.364;17.120;2023-12-04T13:45:27;43.00;;;18.40;;
83747;SDS011;73737;52.364;17.120;2023-12-04T13:47:56;40.30;;;19.50;;
83747;SDS011;73737;52.364;17.120;2023-12-04T13:50:24;37.60;;;17.90;;
83747;SDS011;73737;52.364;17.120;2023-12-04T13:52:52;40.00;;;20.30;;
83747;SDS011;73737;52.364;17.120;2023-12-04T13:55:25;70.80;;;31.70;;
83747;SDS011;73737;52.364;17.120;2023-12-04T13:58:16;59.60;;;26.40;;
83747;SDS011;73737;52.364;17.120;2023-12-04T14:01:04;62.90;;;27.70;;
83747;SDS011;73737;52.364;17.120;2023-12-04T14:03:43;71.60;;;35.30;;
83747;SDS011;73737;52.364;17.120;2023-12-04T14:06:13;65.00;;;30.80;;
83747;SDS011;73737;52.364;17.120;2023-12-04T14:08:43;60.70;;;26.20;;
83747;SDS011;73737;52.364;17.120;2023-12-04T14:11:13;72.40;;;32.50;;
83747;SDS011;73737;52.364;17.120;2023-12-04T14:13:42;66.40;;;29.00;;
83747;SDS011;73737;52.364;17.120;2023-12-04T14:16:11;58.70;;;23.00;;
83747;SDS011;73737;52.364;17.120;2023-12-04T14:18:39;78.70;;;30.50;;
83747;SDS011;73737;52.364;17.120;2023-12-04T14:21:08;81.90;;;32.20;;
83747;SDS011;73737;52.364;17.120;2023-12-04T14:23:36;79.50;;;31.70;;
83747;SDS011;73737;52.364;17.120;2023-12-04T14:26:05;66.40;;;25.70;;
83747;SDS011;73737;52.364;17.120;2023-12-04T14:28:34;68.00;;;27.90;;